sensor_id;sensor_type;location;lat;lon;timestamp;P1;durP1;ratioP1;P2;durP2;ratioP2
74644;SDS011;63163;55.630;37.594;2023-02-28T00:00:55;5.6;;;2.8;;
74644;SDS011;63163;55.630;37.594;2023-02-28T00:01:56;5.5;;;2.9;;
74644;SDS011;63163;55.630;37.594;2023-02-28T00:02:56;7.9;;;3.2;;
74644;SDS011;63163;55.630;37.594;2023-02-28T00:03:57;5.0;;;2.7;;
74644;SDS011;63163;55.630;37.594;2023-02-28T00:04:57;5.6;;;3.0;;
74644;SDS011;63163;55.630;37.594;2023-02-28T00:06:03;4.9;;;2.8;;
74644;SDS011;63163;55.630;37.594;2023-02-28T00:07:04;6.9;;;3.7;;
74644;SDS011;63163;55.630;37.594;2023-02-28T00:08:05;7.0;;;3.7;;
74644;SDS011;63163;55.630;37.594;2023-02-28T00:09:05;8.8;;;4.5;;
74644;SDS011;63163;55.630;37.594;2023-02-28T00:10:06;5.1;;;3.1;;
74644;SDS011;63163;55.630;37.594;2023-02-28T00:11:08;7.4;;;4.1;;
74644;SDS011;63163;55.630;37.594;2023-02-28T00:12:09;4.2;;;2.6;;
74644;SDS011;63163;55.630;37.594;2023-02-28T00:13:10;8.8;;;4.0;;
74644;SDS011;63163;55.630;37.594;2023-02-28T00:14:11;7.3;;;3.8;;
74644;SDS011;63163;55.630;37.594;2023-02-28T00:15:11;7.3;;;4.3;;
74644;SDS011;63163;55.630;37.594;2023-02-28T00:16:13;8.0;;;3.7;;
74644;SDS011;63163;55.630;37.594;2023-02-28T00:17:14;4.7;;;2.6;;
74644;SDS011;63163;55.630;37.594;2023-02-28T00:18:14;6.5;;;3.0;;
74644;SDS011;63163;55.630;37.594;2023-02-28T00:19:15;7.8;;;3.4;;
74644;SDS011;63163;55.630;37.594;2023-02-28T00:20:15;5.4;;;2.9;;
74644;SDS011;63163;55.630;37.594;2023-02-28T00:21:16;7.8;;;3.6;;
74644;SDS011;63163;55.630;37.594;2023-02-28T00:22:17;9.4;;;3.7;;
74644;SDS011;63163;55.630;37.594;2023-02-28T00:23:18;7.9;;;4.2;;
74644;SDS011;63163;55.630;37.594;2023-02-28T00:24:19;6.9;;;3.1;;
74644;SDS011;63163;55.630;37.594;2023-02-28T00:25:20;8.0;;;4.0;;
74644;SDS011;63163;55.630;37.594;2023-02-28T00:26:20;7.2;;;4.5;;
74644;SDS011;63163;55.630;37.594;2023-02-28T00:27:21;9.3;;;4.6;;
74644;SDS011;63163;55.630;37.594;2023-02-28T00:28:22;5.9;;;3.4;;
74644;SDS011;63163;55.630;37.594;2023-02-28T00:29:23;8.7;;;3.9;;
74644;SDS011;63163;55.630;37.594;2023-02-28T00:30:24;8.7;;;3.9;;
74644;SDS011;63163;55.630;37.594;2023-02-28T00:31:25;8.4;;;4.5;;
74644;SDS011;63163;55.630;37.594;2023-02-28T00:32:25;3.8;;;2.2;;
74644;SDS011;63163;55.630;37.594;2023-02-28T00:33:26;5.9;;;3.2;;
74644;SDS011;63163;55.630;37.594;2023-02-28T00:34:26;7.0;;;3.5;;
74644;SDS011;63163;55.630;37.594;2023-02-28T00:35:27;8.0;;;4.2;;
74644;SDS011;63163;55.630;37.594;2023-02-28T00:36:27;8.0;;;3.9;;
74644;SDS011;63163;55.630;37.594;2023-02-28T00:37:28;8.7;;;4.8;;
74644;SDS011;63163;55.630;37.594;2023-02-28T00:38:29;5.8;;;3.1;;
74644;SDS011;63163;55.630;37.594;2023-02-28T00:39:29;6.3;;;3.9;;
74644;SDS011;63163;55.630;37.594;2023-02-28T00:40:30;7.0;;;3.5;;
74644;SDS011;63163;55.630;37.594;2023-02-28T00:41:30;7.2;;;4.1;;
74644;SDS011;63163;55.630;37.594;2023-02-28T00:42:31;6.5;;;3.3;;
74644;SDS011;63163;55.630;37.594;2023-02-28T00:43:32;5.3;;;2.7;;
74644;SDS011;63163;55.630;37.594;2023-02-28T00:44:33;6.4;;;3.5;;
74644;SDS011;63163;55.630;37.594;2023-02-28T00:45:33;8.9;;;4.7;;
74644;SDS011;63163;55.630;37.594;2023-02-28T00:46:34;6.4;;;3.5;;
74644;SDS011;63163;55.630;37.594;2023-02-28T00:47:35;7.4;;;4.3;;
74644;SDS011;63163;55.630;37.594;2023-02-28T00:48:36;5.8;;;3.1;;
74644;SDS011;63163;55.630;37.594;2023-02-28T00:49:37;6.8;;;2.9;;
74644;SDS011;63163;55.630;37.594;2023-02-28T00:50:37;4.3;;;2.6;;
74644;SDS011;63163;55.630;37.594;2023-02-28T00:51:38;6.4;;;3.8;;
74644;SDS011;63163;55.630;37.594;2023-02-28T00:52:39;5.9;;;2.6;;
74644;SDS011;63163;55.630;37.594;2023-02-28T00:53:39;7.6;;;4.1;;
74644;SDS011;63163;55.630;37.594;2023-02-28T00:54:40;8.6;;;4.0;;
74644;SDS011;63163;55.630;37.594;2023-02-28T00:55:40;7.1;;;3.7;;
74644;SDS011;63163;55.630;37.594;2023-02-28T00:56:41;8.0;;;3.9;;
74644;SDS011;63163;55.630;37.594;2023-02-28T00:57:41;6.0;;;3.5;;
74644;SDS011;63163;55.630;37.594;2023-02-28T00:58:42;6.7;;;3.7;;
74644;SDS011;63163;55.630;37.594;2023-02-28T00:59:43;5.8;;;3.2;;
74644;SDS011;63163;55.630;37.594;2023-02-28T01:00:43;5.1;;;2.8;;
74644;SDS011;63163;55.630;37.594;2023-02-28T01:01:49;8.7;;;4.3;;
74644;SDS011;63163;55.630;37.594;2023-02-28T01:02:49;6.8;;;3.3;;
74644;SDS011;63163;55.630;37.594;2023-02-28T01:03:50;3.6;;;2.0;;
74644;SDS011;63163;55.630;37.594;2023-02-28T01:04:50;6.7;;;3.2;;
74644;SDS011;63163;55.630;37.594;2023-02-28T01:05:51;5.4;;;2.4;;
74644;SDS011;63163;55.630;37.594;2023-02-28T01:06:53;3.4;;;1.9;;
74644;SDS011;63163;55.630;37.594;2023-02-28T01:07:53;6.6;;;3.4;;
74644;SDS011;63163;55.630;37.594;2023-02-28T01:08:54;5.2;;;2.6;;
74644;SDS011;63163;55.630;37.594;2023-02-28T01:09:54;7.0;;;3.8;;
74644;SDS011;63163;55.630;37.594;2023-02-28T01:10:55;5.3;;;3.1;;
74644;SDS011;63163;55.630;37.594;2023-02-28T01:11:56;8.6;;;4.5;;
74644;SDS011;63163;55.630;37.594;2023-02-28T01:12:56;7.3;;;3.8;;
74644;SDS011;63163;55.630;37.594;2023-02-28T01:13:57;5.0;;;2.5;;
74644;SDS011;63163;55.630;37.594;2023-02-28T01:14:58;7.5;;;3.7;;
74644;SDS011;63163;55.630;37.594;2023-02-28T01:15:58;6.5;;;3.5;;
74644;SDS011;63163;55.630;37.594;2023-02-28T01:16:59;3.2;;;2.2;;
74644;SDS011;63163;55.630;37.594;2023-02-28T01:18:00;7.4;;;4.0;;
74644;SDS011;63163;55.630;37.594;2023-02-28T01:19:00;6.1;;;3.4;;
74644;SDS011;63163;55.630;37.594;2023-02-28T01:20:01;7.1;;;4.3;;
74644;SDS011;63163;55.630;37.594;2023-02-28T01:21:03;5.5;;;1.8;;
74644;SDS011;63163;55.630;37.594;2023-02-28T01:22:03;7.3;;;3.9;;
74644;SDS011;63163;55.630;37.594;2023-02-28T01:23:05;6.2;;;3.4;;
74644;SDS011;63163;55.630;37.594;2023-02-28T01:24:05;7.3;;;4.2;;
74644;SDS011;63163;55.630;37.594;2023-02-28T01:25:07;7.9;;;4.3;;
74644;SDS011;63163;55.630;37.594;2023-02-28T01:26:10;8.2;;;4.4;;
74644;SDS011;63163;55.630;37.594;2023-02-28T01:27:11;8.6;;;3.8;;
74644;SDS011;63163;55.630;37.594;2023-02-28T01:28:11;7.4;;;4.1;;
74644;SDS011;63163;55.630;37.594;2023-02-28T01:29:11;6.6;;;3.1;;
74644;SDS011;63163;55.630;37.594;2023-02-28T01:30:12;6.6;;;3.1;;
74644;SDS011;63163;55.630;37.594;2023-02-28T01:31:13;10.4;;;3.4;;
74644;SDS011;63163;55.630;37.594;2023-02-28T01:32:13;10.1;;;4.3;;
74644;SDS011;63163;55.630;37.594;2023-02-28T01:33:14;4.0;;;2.3;;
74644;SDS011;63163;55.630;37.594;2023-02-28T01:34:14;9.1;;;4.8;;
74644;SDS011;63163;55.630;37.594;2023-02-28T01:35:15;9.6;;;4.8;;
74644;SDS011;63163;55.630;37.594;2023-02-28T01:36:17;7.0;;;4.0;;
74644;SDS011;63163;55.630;37.594;2023-02-28T01:37:18;7.9;;;4.0;;
74644;SDS011;63163;55.630;37.594;2023-02-28T01:38:18;8.4;;;4.4;;
74644;SDS011;63163;55.630;37.594;2023-02-28T01:39:19;10.7;;;4.5;;
74644;SDS011;63163;55.630;37.594;2023-02-28T01:40:19;7.9;;;4.3;;
74644;SDS011;63163;55.630;37.594;2023-02-28T01:41:21;6.4;;;3.0;;
74644;SDS011;63163;55.630;37.594;2023-02-28T01:42:22;6.8;;;3.8;;
74644;SDS011;63163;55.630;37.594;2023-02-28T01:43:23;7.8;;;4.0;;
74644;SDS011;63163;55.630;37.594;2023-02-28T01:44:58;6.0;;;3.1;;
74644;SDS011;63163;55.630;37.594;2023-02-28T01:45:59;9.1;;;4.7;;
74644;SDS011;63163;55.630;37.594;2023-02-28T01:46:59;5.0;;;2.9;;
74644;SDS011;63163;55.630;37.594;2023-02-28T01:48:02;7.3;;;3.9;;
74644;SDS011;63163;55.630;37.594;2023-02-28T01:49:05;7.8;;;4.1;;
74644;SDS011;63163;55.630;37.594;2023-02-28T01:50:07;6.6;;;3.2;;
74644;SDS011;63163;55.630;37.594;2023-02-28T01:51:10;10.6;;;3.0;;
74644;SDS011;63163;55.630;37.594;2023-02-28T01:52:12;7.7;;;3.8;;
74644;SDS011;63163;55.630;37.594;2023-02-28T01:53:18;7.1;;;4.2;;
74644;SDS011;63163;55.630;37.594;2023-02-28T01:54:20;7.1;;;4.0;;
74644;SDS011;63163;55.630;37.594;2023-02-28T01:55:22;4.0;;;2.1;;
74644;SDS011;63163;55.630;37.594;2023-02-28T01:56:24;5.5;;;3.2;;
74644;SDS011;63163;55.630;37.594;2023-02-28T01:57:27;6.6;;;3.5;;
74644;SDS011;63163;55.630;37.594;2023-02-28T01:58:30;6.4;;;2.9;;
74644;SDS011;63163;55.630;37.594;2023-02-28T01:59:31;5.3;;;3.0;;
74644;SDS011;63163;55.630;37.594;2023-02-28T02:00:33;6.0;;;2.9;;
74644;SDS011;63163;55.630;37.594;2023-02-28T02:01:34;5.1;;;2.4;;
74644;SDS011;63163;55.630;37.594;2023-02-28T02:02:34;4.1;;;2.3;;
74644;SDS011;63163;55.630;37.594;2023-02-28T02:03:36;4.5;;;2.3;;
74644;SDS011;63163;55.630;37.594;2023-02-28T02:04:37;5.2;;;2.8;;
74644;SDS011;63163;55.630;37.594;2023-02-28T02:05:39;3.5;;;2.0;;
74644;SDS011;63163;55.630;37.594;2023-02-28T02:06:42;6.5;;;3.0;;
74644;SDS011;63163;55.630;37.594;2023-02-28T02:07:44;6.1;;;2.9;;
74644;SDS011;63163;55.630;37.594;2023-02-28T02:08:45;6.9;;;3.4;;
74644;SDS011;63163;55.630;37.594;2023-02-28T02:09:46;3.6;;;2.0;;
74644;SDS011;63163;55.630;37.594;2023-02-28T02:10:47;7.4;;;3.9;;
74644;SDS011;63163;55.630;37.594;2023-02-28T02:11:50;2.1;;;1.2;;
74644;SDS011;63163;55.630;37.594;2023-02-28T02:12:55;2.6;;;1.6;;
74644;SDS011;63163;55.630;37.594;2023-02-28T02:14:05;6.9;;;3.5;;
74644;SDS011;63163;55.630;37.594;2023-02-28T02:15:11;7.4;;;3.7;;
74644;SDS011;63163;55.630;37.594;2023-02-28T02:16:17;6.3;;;3.4;;
74644;SDS011;63163;55.630;37.594;2023-02-28T02:17:22;4.2;;;2.2;;
74644;SDS011;63163;55.630;37.594;2023-02-28T02:18:26;5.1;;;2.8;;
74644;SDS011;63163;55.630;37.594;2023-02-28T02:19:39;5.4;;;2.8;;
74644;SDS011;63163;55.630;37.594;2023-02-28T02:20:46;7.4;;;3.9;;
74644;SDS011;63163;55.630;37.594;2023-02-28T02:21:56;4.5;;;2.5;;
74644;SDS011;63163;55.630;37.594;2023-02-28T02:23:03;6.4;;;3.4;;
74644;SDS011;63163;55.630;37.594;2023-02-28T02:24:14;1.9;;;1.4;;
74644;SDS011;63163;55.630;37.594;2023-02-28T02:25:19;3.9;;;2.1;;
74644;SDS011;63163;55.630;37.594;2023-02-28T02:26:27;6.0;;;3.0;;
74644;SDS011;63163;55.630;37.594;2023-02-28T02:27:34;7.2;;;3.5;;
74644;SDS011;63163;55.630;37.594;2023-02-28T02:28:49;7.5;;;3.2;;
74644;SDS011;63163;55.630;37.594;2023-02-28T02:30:32;5.4;;;2.8;;
74644;SDS011;63163;55.630;37.594;2023-02-28T02:31:38;5.3;;;2.9;;
74644;SDS011;63163;55.630;37.594;2023-02-28T02:32:48;6.8;;;3.6;;
74644;SDS011;63163;55.630;37.594;2023-02-28T02:34:23;3.7;;;2.0;;
74644;SDS011;63163;55.630;37.594;2023-02-28T02:35:26;4.0;;;2.1;;
74644;SDS011;63163;55.630;37.594;2023-02-28T02:36:29;3.8;;;2.3;;
74644;SDS011;63163;55.630;37.594;2023-02-28T02:37:33;5.3;;;2.6;;
74644;SDS011;63163;55.630;37.594;2023-02-28T02:38:38;6.0;;;3.0;;
74644;SDS011;63163;55.630;37.594;2023-02-28T02:39:44;5.7;;;2.8;;
74644;SDS011;63163;55.630;37.594;2023-02-28T02:40:52;6.5;;;3.6;;
74644;SDS011;63163;55.630;37.594;2023-02-28T02:41:55;5.0;;;3.0;;
74644;SDS011;63163;55.630;37.594;2023-02-28T02:42:58;5.2;;;2.2;;
74644;SDS011;63163;55.630;37.594;2023-02-28T02:44:02;3.0;;;2.0;;
74644;SDS011;63163;55.630;37.594;2023-02-28T02:45:05;5.7;;;3.2;;
74644;SDS011;63163;55.630;37.594;2023-02-28T02:46:08;4.0;;;2.2;;
74644;SDS011;63163;55.630;37.594;2023-02-28T02:47:10;6.3;;;2.8;;
74644;SDS011;63163;55.630;37.594;2023-02-28T02:48:12;6.7;;;3.6;;
74644;SDS011;63163;55.630;37.594;2023-02-28T02:49:15;6.3;;;3.6;;
74644;SDS011;63163;55.630;37.594;2023-02-28T02:50:19;2.1;;;1.0;;
74644;SDS011;63163;55.630;37.594;2023-02-28T02:51:22;4.8;;;2.7;;
74644;SDS011;63163;55.630;37.594;2023-02-28T02:52:25;5.1;;;2.7;;
74644;SDS011;63163;55.630;37.594;2023-02-28T02:53:30;5.2;;;2.8;;
74644;SDS011;63163;55.630;37.594;2023-02-28T02:54:33;7.7;;;3.0;;
74644;SDS011;63163;55.630;37.594;2023-02-28T02:55:37;6.8;;;3.1;;
74644;SDS011;63163;55.630;37.594;2023-02-28T02:56:38;2.7;;;1.6;;
74644;SDS011;63163;55.630;37.594;2023-02-28T02:57:42;5.8;;;2.9;;
74644;SDS011;63163;55.630;37.594;2023-02-28T02:58:44;4.8;;;2.5;;
74644;SDS011;63163;55.630;37.594;2023-02-28T02:59:44;5.8;;;3.0;;
74644;SDS011;63163;55.630;37.594;2023-02-28T03:00:46;5.2;;;2.7;;
74644;SDS011;63163;55.630;37.594;2023-02-28T03:01:47;4.3;;;1.8;;
74644;SDS011;63163;55.630;37.594;2023-02-28T03:02:49;3.9;;;2.2;;
74644;SDS011;63163;55.630;37.594;2023-02-28T03:03:50;6.9;;;3.2;;
74644;SDS011;63163;55.630;37.594;2023-02-28T03:04:51;5.8;;;2.5;;
74644;SDS011;63163;55.630;37.594;2023-02-28T03:05:52;8.0;;;3.8;;
74644;SDS011;63163;55.630;37.594;2023-02-28T03:06:53;1.8;;;1.2;;
74644;SDS011;63163;55.630;37.594;2023-02-28T03:07:55;4.8;;;2.8;;
74644;SDS011;63163;55.630;37.594;2023-02-28T03:08:55;5.3;;;2.7;;
74644;SDS011;63163;55.630;37.594;2023-02-28T03:09:56;4.7;;;2.5;;
74644;SDS011;63163;55.630;37.594;2023-02-28T03:10:58;3.6;;;1.6;;
74644;SDS011;63163;55.630;37.594;2023-02-28T03:12:00;3.4;;;1.8;;
74644;SDS011;63163;55.630;37.594;2023-02-28T03:13:05;4.9;;;2.3;;
74644;SDS011;63163;55.630;37.594;2023-02-28T03:14:11;3.5;;;1.8;;
74644;SDS011;63163;55.630;37.594;2023-02-28T03:15:19;5.1;;;2.5;;
74644;SDS011;63163;55.630;37.594;2023-02-28T03:16:33;5.5;;;2.6;;
74644;SDS011;63163;55.630;37.594;2023-02-28T03:17:39;3.6;;;1.9;;
74644;SDS011;63163;55.630;37.594;2023-02-28T03:18:43;10.3;;;2.9;;
74644;SDS011;63163;55.630;37.594;2023-02-28T03:19:47;5.5;;;2.6;;
74644;SDS011;63163;55.630;37.594;2023-02-28T03:20:51;5.4;;;2.5;;
74644;SDS011;63163;55.630;37.594;2023-02-28T03:21:57;5.4;;;3.1;;
74644;SDS011;63163;55.630;37.594;2023-02-28T03:23:04;2.1;;;1.3;;
74644;SDS011;63163;55.630;37.594;2023-02-28T03:24:10;4.8;;;2.5;;
74644;SDS011;63163;55.630;37.594;2023-02-28T03:25:13;2.1;;;1.4;;
74644;SDS011;63163;55.630;37.594;2023-02-28T03:26:18;4.7;;;2.4;;
74644;SDS011;63163;55.630;37.594;2023-02-28T03:27:21;3.6;;;1.8;;
74644;SDS011;63163;55.630;37.594;2023-02-28T03:28:27;4.6;;;2.5;;
74644;SDS011;63163;55.630;37.594;2023-02-28T03:29:31;4.1;;;2.5;;
74644;SDS011;63163;55.630;37.594;2023-02-28T03:30:36;4.5;;;2.1;;
74644;SDS011;63163;55.630;37.594;2023-02-28T03:31:38;2.1;;;1.3;;
74644;SDS011;63163;55.630;37.594;2023-02-28T03:32:41;2.4;;;1.4;;
74644;SDS011;63163;55.630;37.594;2023-02-28T03:33:43;2.9;;;1.5;;
74644;SDS011;63163;55.630;37.594;2023-02-28T03:34:46;4.8;;;2.3;;
74644;SDS011;63163;55.630;37.594;2023-02-28T03:35:49;3.5;;;2.0;;
74644;SDS011;63163;55.630;37.594;2023-02-28T03:36:52;2.5;;;1.5;;
74644;SDS011;63163;55.630;37.594;2023-02-28T03:37:55;4.3;;;2.5;;
74644;SDS011;63163;55.630;37.594;2023-02-28T03:38:59;8.3;;;2.8;;
74644;SDS011;63163;55.630;37.594;2023-02-28T03:40:03;3.3;;;1.7;;
74644;SDS011;63163;55.630;37.594;2023-02-28T03:41:09;5.3;;;2.2;;
74644;SDS011;63163;55.630;37.594;2023-02-28T03:42:11;3.9;;;1.8;;
74644;SDS011;63163;55.630;37.594;2023-02-28T03:43:15;3.8;;;1.8;;
74644;SDS011;63163;55.630;37.594;2023-02-28T03:44:19;3.4;;;2.0;;
74644;SDS011;63163;55.630;37.594;2023-02-28T03:45:23;4.8;;;2.0;;
74644;SDS011;63163;55.630;37.594;2023-02-28T03:46:25;4.5;;;2.7;;
74644;SDS011;63163;55.630;37.594;2023-02-28T03:47:29;4.0;;;2.1;;
74644;SDS011;63163;55.630;37.594;2023-02-28T03:48:32;4.2;;;2.5;;
74644;SDS011;63163;55.630;37.594;2023-02-28T03:49:36;5.1;;;2.7;;
74644;SDS011;63163;55.630;37.594;2023-02-28T03:50:40;3.8;;;2.3;;
74644;SDS011;63163;55.630;37.594;2023-02-28T03:51:41;4.3;;;2.6;;
74644;SDS011;63163;55.630;37.594;2023-02-28T03:52:44;3.6;;;1.9;;
74644;SDS011;63163;55.630;37.594;2023-02-28T03:53:46;6.0;;;2.8;;
74644;SDS011;63163;55.630;37.594;2023-02-28T03:54:50;5.0;;;2.7;;
74644;SDS011;63163;55.630;37.594;2023-02-28T03:55:52;5.6;;;2.3;;
74644;SDS011;63163;55.630;37.594;2023-02-28T03:56:55;3.5;;;2.0;;
74644;SDS011;63163;55.630;37.594;2023-02-28T03:57:58;4.3;;;2.0;;
74644;SDS011;63163;55.630;37.594;2023-02-28T03:59:02;4.8;;;2.3;;
74644;SDS011;63163;55.630;37.594;2023-02-28T04:00:06;4.9;;;2.7;;
74644;SDS011;63163;55.630;37.594;2023-02-28T04:01:08;3.9;;;1.7;;
74644;SDS011;63163;55.630;37.594;2023-02-28T04:02:09;4.4;;;2.1;;
74644;SDS011;63163;55.630;37.594;2023-02-28T04:03:10;2.2;;;1.5;;
74644;SDS011;63163;55.630;37.594;2023-02-28T04:04:11;3.8;;;2.0;;
74644;SDS011;63163;55.630;37.594;2023-02-28T04:05:12;2.0;;;1.5;;
74644;SDS011;63163;55.630;37.594;2023-02-28T04:06:14;2.3;;;1.2;;
74644;SDS011;63163;55.630;37.594;2023-02-28T04:07:15;5.0;;;2.5;;
74644;SDS011;63163;55.630;37.594;2023-02-28T04:08:16;5.4;;;2.4;;
74644;SDS011;63163;55.630;37.594;2023-02-28T04:09:16;2.6;;;1.5;;
74644;SDS011;63163;55.630;37.594;2023-02-28T04:10:17;2.5;;;1.2;;
74644;SDS011;63163;55.630;37.594;2023-02-28T04:11:19;4.1;;;1.7;;
74644;SDS011;63163;55.630;37.594;2023-02-28T04:12:21;2.8;;;1.6;;
74644;SDS011;63163;55.630;37.594;2023-02-28T04:13:23;2.6;;;1.8;;
74644;SDS011;63163;55.630;37.594;2023-02-28T04:14:24;3.4;;;2.0;;
74644;SDS011;63163;55.630;37.594;2023-02-28T04:15:24;3.1;;;1.6;;
74644;SDS011;63163;55.630;37.594;2023-02-28T04:16:27;1.8;;;1.1;;
74644;SDS011;63163;55.630;37.594;2023-02-28T04:17:28;4.5;;;2.3;;
74644;SDS011;63163;55.630;37.594;2023-02-28T04:18:28;5.0;;;2.1;;
74644;SDS011;63163;55.630;37.594;2023-02-28T04:19:29;2.5;;;1.7;;
74644;SDS011;63163;55.630;37.594;2023-02-28T04:20:29;2.3;;;1.4;;
74644;SDS011;63163;55.630;37.594;2023-02-28T04:21:30;2.3;;;1.1;;
74644;SDS011;63163;55.630;37.594;2023-02-28T04:22:31;4.7;;;2.2;;
74644;SDS011;63163;55.630;37.594;2023-02-28T04:23:32;2.9;;;1.8;;
74644;SDS011;63163;55.630;37.594;2023-02-28T04:24:32;3.9;;;2.2;;
74644;SDS011;63163;55.630;37.594;2023-02-28T04:25:33;3.3;;;1.7;;
74644;SDS011;63163;55.630;37.594;2023-02-28T04:26:34;5.9;;;3.0;;
74644;SDS011;63163;55.630;37.594;2023-02-28T04:27:35;2.5;;;1.5;;
74644;SDS011;63163;55.630;37.594;2023-02-28T04:28:36;5.6;;;2.6;;
74644;SDS011;63163;55.630;37.594;2023-02-28T04:29:37;3.5;;;2.2;;
74644;SDS011;63163;55.630;37.594;2023-02-28T04:30:38;3.5;;;2.2;;
74644;SDS011;63163;55.630;37.594;2023-02-28T04:31:39;5.0;;;2.1;;
74644;SDS011;63163;55.630;37.594;2023-02-28T04:32:39;1.7;;;1.2;;
74644;SDS011;63163;55.630;37.594;2023-02-28T04:33:40;4.2;;;1.8;;
74644;SDS011;63163;55.630;37.594;2023-02-28T04:34:40;3.5;;;2.0;;
74644;SDS011;63163;55.630;37.594;2023-02-28T04:35:41;3.8;;;2.4;;
74644;SDS011;63163;55.630;37.594;2023-02-28T04:36:41;3.5;;;2.1;;
74644;SDS011;63163;55.630;37.594;2023-02-28T04:37:42;6.2;;;2.2;;
74644;SDS011;63163;55.630;37.594;2023-02-28T04:38:43;4.6;;;1.9;;
74644;SDS011;63163;55.630;37.594;2023-02-28T04:39:43;5.9;;;2.4;;
74644;SDS011;63163;55.630;37.594;2023-02-28T04:40:44;5.7;;;2.6;;
74644;SDS011;63163;55.630;37.594;2023-02-28T04:41:44;4.5;;;2.2;;
74644;SDS011;63163;55.630;37.594;2023-02-28T04:42:45;3.2;;;1.8;;
74644;SDS011;63163;55.630;37.594;2023-02-28T04:43:46;3.3;;;1.9;;
74644;SDS011;63163;55.630;37.594;2023-02-28T04:44:46;2.5;;;1.4;;
74644;SDS011;63163;55.630;37.594;2023-02-28T04:45:47;2.9;;;1.5;;
74644;SDS011;63163;55.630;37.594;2023-02-28T04:46:48;3.4;;;1.8;;
74644;SDS011;63163;55.630;37.594;2023-02-28T04:47:49;2.8;;;1.5;;
74644;SDS011;63163;55.630;37.594;2023-02-28T04:48:49;4.0;;;2.1;;
74644;SDS011;63163;55.630;37.594;2023-02-28T04:49:50;2.6;;;1.8;;
74644;SDS011;63163;55.630;37.594;2023-02-28T04:50:50;2.6;;;1.6;;
74644;SDS011;63163;55.630;37.594;2023-02-28T04:51:51;2.8;;;1.6;;
74644;SDS011;63163;55.630;37.594;2023-02-28T04:52:53;3.5;;;1.9;;
74644;SDS011;63163;55.630;37.594;2023-02-28T04:53:54;5.0;;;2.3;;
74644;SDS011;63163;55.630;37.594;2023-02-28T04:54:54;3.6;;;1.7;;
74644;SDS011;63163;55.630;37.594;2023-02-28T04:55:55;2.5;;;1.6;;
74644;SDS011;63163;55.630;37.594;2023-02-28T04:56:56;2.9;;;1.4;;
74644;SDS011;63163;55.630;37.594;2023-02-28T04:57:57;3.8;;;2.1;;
74644;SDS011;63163;55.630;37.594;2023-02-28T04:58:58;4.0;;;2.2;;
74644;SDS011;63163;55.630;37.594;2023-02-28T04:59:58;4.8;;;2.6;;
74644;SDS011;63163;55.630;37.594;2023-02-28T05:01:02;4.5;;;1.7;;
74644;SDS011;63163;55.630;37.594;2023-02-28T05:02:03;4.6;;;1.7;;
74644;SDS011;63163;55.630;37.594;2023-02-28T05:03:06;2.3;;;1.3;;
74644;SDS011;63163;55.630;37.594;2023-02-28T05:04:08;2.9;;;1.5;;
74644;SDS011;63163;55.630;37.594;2023-02-28T05:05:09;3.7;;;2.1;;
74644;SDS011;63163;55.630;37.594;2023-02-28T05:06:11;3.3;;;1.7;;
74644;SDS011;63163;55.630;37.594;2023-02-28T05:07:11;4.9;;;2.2;;
74644;SDS011;63163;55.630;37.594;2023-02-28T05:08:12;4.7;;;2.6;;
74644;SDS011;63163;55.630;37.594;2023-02-28T05:09:13;5.2;;;2.0;;
74644;SDS011;63163;55.630;37.594;2023-02-28T05:10:13;4.4;;;1.9;;
74644;SDS011;63163;55.630;37.594;2023-02-28T05:11:15;2.8;;;1.6;;
74644;SDS011;63163;55.630;37.594;2023-02-28T05:12:16;3.9;;;1.8;;
74644;SDS011;63163;55.630;37.594;2023-02-28T05:13:17;4.7;;;1.7;;
74644;SDS011;63163;55.630;37.594;2023-02-28T05:14:17;3.1;;;1.6;;
74644;SDS011;63163;55.630;37.594;2023-02-28T05:15:18;3.7;;;2.0;;
74644;SDS011;63163;55.630;37.594;2023-02-28T05:16:18;4.3;;;2.2;;
74644;SDS011;63163;55.630;37.594;2023-02-28T05:17:19;3.8;;;2.1;;
74644;SDS011;63163;55.630;37.594;2023-02-28T05:18:20;4.1;;;1.8;;
74644;SDS011;63163;55.630;37.594;2023-02-28T05:19:21;2.0;;;1.0;;
74644;SDS011;63163;55.630;37.594;2023-02-28T05:20:21;5.1;;;2.4;;
74644;SDS011;63163;55.630;37.594;2023-02-28T05:21:24;2.0;;;1.1;;
74644;SDS011;63163;55.630;37.594;2023-02-28T05:22:25;4.7;;;1.8;;
74644;SDS011;63163;55.630;37.594;2023-02-28T05:23:25;3.9;;;2.1;;
74644;SDS011;63163;55.630;37.594;2023-02-28T05:24:26;3.8;;;1.9;;
74644;SDS011;63163;55.630;37.594;2023-02-28T05:25:27;4.3;;;2.1;;
74644;SDS011;63163;55.630;37.594;2023-02-28T05:26:27;2.7;;;1.6;;
74644;SDS011;63163;55.630;37.594;2023-02-28T05:27:28;4.1;;;1.9;;
74644;SDS011;63163;55.630;37.594;2023-02-28T05:28:28;3.4;;;1.9;;
74644;SDS011;63163;55.630;37.594;2023-02-28T05:29:29;3.3;;;1.8;;
74644;SDS011;63163;55.630;37.594;2023-02-28T05:30:30;3.3;;;1.8;;
74644;SDS011;63163;55.630;37.594;2023-02-28T05:31:32;3.0;;;2.0;;
74644;SDS011;63163;55.630;37.594;2023-02-28T05:32:32;4.8;;;2.3;;
74644;SDS011;63163;55.630;37.594;2023-02-28T05:33:33;3.2;;;1.7;;
74644;SDS011;63163;55.630;37.594;2023-02-28T05:34:33;4.6;;;2.0;;
74644;SDS011;63163;55.630;37.594;2023-02-28T05:35:34;4.7;;;2.1;;
74644;SDS011;63163;55.630;37.594;2023-02-28T05:36:37;4.1;;;2.0;;
74644;SDS011;63163;55.630;37.594;2023-02-28T05:37:38;2.6;;;1.6;;
74644;SDS011;63163;55.630;37.594;2023-02-28T05:38:39;4.7;;;2.2;;
74644;SDS011;63163;55.630;37.594;2023-02-28T05:39:40;2.5;;;1.3;;
74644;SDS011;63163;55.630;37.594;2023-02-28T05:40:40;4.0;;;1.9;;
74644;SDS011;63163;55.630;37.594;2023-02-28T05:41:41;3.1;;;1.7;;
74644;SDS011;63163;55.630;37.594;2023-02-28T05:42:42;2.6;;;1.7;;
74644;SDS011;63163;55.630;37.594;2023-02-28T05:43:42;3.8;;;2.0;;
74644;SDS011;63163;55.630;37.594;2023-02-28T05:44:43;2.6;;;1.5;;
74644;SDS011;63163;55.630;37.594;2023-02-28T05:45:43;4.6;;;2.0;;
74644;SDS011;63163;55.630;37.594;2023-02-28T05:46:44;2.8;;;1.5;;
74644;SDS011;63163;55.630;37.594;2023-02-28T05:47:44;4.4;;;2.0;;
74644;SDS011;63163;55.630;37.594;2023-02-28T05:48:46;2.1;;;1.3;;
74644;SDS011;63163;55.630;37.594;2023-02-28T05:49:47;3.5;;;1.9;;
74644;SDS011;63163;55.630;37.594;2023-02-28T05:50:47;3.2;;;1.8;;
74644;SDS011;63163;55.630;37.594;2023-02-28T05:51:48;5.4;;;2.4;;
74644;SDS011;63163;55.630;37.594;2023-02-28T05:52:49;2.1;;;1.3;;
74644;SDS011;63163;55.630;37.594;2023-02-28T05:53:49;2.9;;;1.9;;
74644;SDS011;63163;55.630;37.594;2023-02-28T05:54:50;4.0;;;1.9;;
74644;SDS011;63163;55.630;37.594;2023-02-28T05:55:51;2.7;;;1.4;;
74644;SDS011;63163;55.630;37.594;2023-02-28T05:56:51;3.9;;;1.9;;
74644;SDS011;63163;55.630;37.594;2023-02-28T05:57:52;3.2;;;1.9;;
74644;SDS011;63163;55.630;37.594;2023-02-28T05:58:52;2.2;;;1.5;;
74644;SDS011;63163;55.630;37.594;2023-02-28T05:59:53;4.2;;;1.8;;
74644;SDS011;63163;55.630;37.594;2023-02-28T06:00:53;2.4;;;1.4;;
74644;SDS011;63163;55.630;37.594;2023-02-28T06:01:54;4.8;;;2.4;;
74644;SDS011;63163;55.630;37.594;2023-02-28T06:02:55;3.6;;;2.0;;
74644;SDS011;63163;55.630;37.594;2023-02-28T06:03:58;2.9;;;1.6;;
74644;SDS011;63163;55.630;37.594;2023-02-28T06:04:59;3.3;;;1.8;;
74644;SDS011;63163;55.630;37.594;2023-02-28T06:05:59;3.8;;;1.8;;
74644;SDS011;63163;55.630;37.594;2023-02-28T06:07:00;4.8;;;1.8;;
74644;SDS011;63163;55.630;37.594;2023-02-28T06:08:01;3.1;;;1.9;;
74644;SDS011;63163;55.630;37.594;2023-02-28T06:09:03;3.5;;;1.8;;
74644;SDS011;63163;55.630;37.594;2023-02-28T06:10:04;2.2;;;1.2;;
74644;SDS011;63163;55.630;37.594;2023-02-28T06:11:04;4.6;;;2.4;;
74644;SDS011;63163;55.630;37.594;2023-02-28T06:12:05;3.7;;;1.9;;
74644;SDS011;63163;55.630;37.594;2023-02-28T06:13:07;3.9;;;1.9;;
74644;SDS011;63163;55.630;37.594;2023-02-28T06:14:09;2.3;;;1.4;;
74644;SDS011;63163;55.630;37.594;2023-02-28T06:15:13;2.8;;;1.5;;
74644;SDS011;63163;55.630;37.594;2023-02-28T06:16:14;4.3;;;2.0;;
74644;SDS011;63163;55.630;37.594;2023-02-28T06:17:14;3.7;;;1.8;;
74644;SDS011;63163;55.630;37.594;2023-02-28T06:18:15;2.5;;;1.7;;
74644;SDS011;63163;55.630;37.594;2023-02-28T06:19:15;2.8;;;1.7;;
74644;SDS011;63163;55.630;37.594;2023-02-28T06:20:16;2.7;;;1.6;;